createdAt,value
2022-08-08T00:00:55.026Z,6.60
2022-08-08T00:02:52.514Z,6.00
2022-08-08T00:06:03.220Z,7.60
2022-08-08T00:09:16.629Z,8.00
2022-08-08T00:12:13.480Z,7.00
2022-08-08T00:15:17.611Z,7.40
2022-08-08T00:18:50.164Z,9.40
2022-08-08T00:21:51.388Z,5.60
2022-08-08T00:24:51.162Z,7.60
2022-08-08T00:27:50.872Z,6.00
2022-08-08T00:31:00.798Z,8.20
2022-08-08T00:34:40.441Z,8.00
2022-08-08T00:38:16.745Z,7.20
2022-08-08T00:41:55.185Z,6.00
2022-08-08T00:45:38.422Z,7.00
2022-08-08T00:49:22.190Z,7.00
2022-08-08T00:52:24.312Z,6.00
2022-08-08T00:55:54.185Z,9.60
2022-08-08T00:58:54.537Z,8.60
2022-08-08T01:02:04.444Z,9.60
2022-08-08T01:05:59.213Z,7.20
2022-08-08T01:09:35.807Z,7.00
2022-08-08T01:13:14.957Z,11.00
2022-08-08T01:16:39.411Z,10.00
2022-08-08T01:20:02.159Z,10.20
2022-08-08T01:24:06.129Z,11.00
2022-08-08T01:27:10.578Z,9.60
2022-08-08T01:30:31.512Z,10.00
2022-08-08T01:34:14.255Z,9.00
2022-08-08T01:37:56.664Z,11.00
2022-08-08T01:41:02.754Z,10.20
2022-08-08T01:44:06.899Z,10.20
2022-08-08T01:48:03.687Z,9.20
2022-08-08T01:51:31.592Z,11.20
2022-08-08T01:55:25.939Z,9.80
2022-08-08T01:58:39.483Z,10.80
2022-08-08T02:02:42.752Z,9.60
2022-08-08T02:05:56.898Z,11.00
2022-08-08T02:09:16.085Z,10.00
2022-08-08T02:12:48.398Z,10.80
2022-08-08T02:15:52.562Z,10.00
2022-08-08T02:19:01.207Z,11.00
2022-08-08T02:22:31.360Z,10.20
2022-08-08T02:25:51.748Z,10.00
2022-08-08T02:29:07.849Z,12.00
2022-08-08T02:32:28.757Z,11.80
2022-08-08T02:36:03.883Z,12.00
2022-08-08T02:39:40.907Z,11.00
2022-08-08T02:42:42.030Z,9.80
2022-08-08T02:46:00.890Z,11.00
2022-08-08T02:49:47.803Z,12.00
2022-08-08T02:53:07.480Z,13.20
2022-08-08T02:56:23.039Z,12.00
2022-08-08T03:00:15.937Z,11.00
2022-08-08T03:05:03.804Z,11.00
2022-08-08T03:07:13.352Z,10.80
2022-08-08T03:10:36.273Z,11.20
2022-08-08T03:16:01.430Z,10.00
2022-08-08T03:18:04.532Z,9.20
2022-08-08T03:21:10.046Z,11.40
2022-08-08T03:24:16.944Z,13.40
2022-08-08T03:27:27.266Z,12.00
2022-08-08T03:30:25.884Z,12.20
2022-08-08T03:33:55.568Z,11.60
2022-08-08T03:36:43.499Z,12.60
2022-08-08T03:40:00.140Z,11.00
2022-08-08T03:43:18.047Z,8.60
2022-08-08T03:46:19.762Z,11.00
2022-08-08T03:49:38.139Z,11.80
2022-08-08T03:52:44.455Z,11.80
2022-08-08T03:55:57.621Z,11.80
2022-08-08T03:59:01.647Z,12.20
2022-08-08T04:02:13.200Z,11.00
2022-08-08T04:05:19.464Z,12.20
2022-08-08T04:08:32.946Z,11.80
2022-08-08T04:11:48.426Z,13.00
2022-08-08T04:14:52.143Z,12.20
2022-08-08T04:17:59.261Z,10.00
2022-08-08T04:20:57.835Z,12.00
2022-08-08T04:24:12.059Z,10.00
2022-08-08T04:27:19.756Z,11.00
2022-08-08T04:30:40.024Z,13.00
2022-08-08T04:33:42.711Z,12.00
2022-08-08T04:36:41.613Z,11.40
2022-08-08T04:40:03.666Z,13.40
2022-08-08T04:43:00.765Z,12.20
2022-08-08T04:46:02.885Z,12.00
2022-08-08T04:49:00.860Z,12.00
2022-08-08T04:51:58.815Z,11.20
2022-08-08T04:54:57.018Z,11.80
2022-08-08T04:57:55.021Z,13.40
2022-08-08T05:00:57.047Z,11.00
2022-08-08T05:04:11.403Z,13.40
2022-08-08T05:07:14.927Z,12.20
2022-08-08T05:10:13.230Z,14.20
2022-08-08T05:13:17.481Z,11.60
2022-08-08T05:16:54.854Z,13.00
2022-08-08T05:20:11.575Z,13.40
2022-08-08T05:22:59.123Z,10.60
2022-08-08T05:26:01.767Z,10.80
2022-08-08T05:29:04.740Z,10.60
2022-08-08T05:32:08.117Z,14.00
2022-08-08T05:35:06.357Z,15.60
2022-08-08T05:38:30.719Z,13.20
2022-08-08T05:41:27.825Z,10.00
2022-08-08T05:44:31.125Z,12.00
2022-08-08T05:47:30.013Z,13.40
2022-08-08T05:50:48.112Z,13.40
2022-08-08T05:54:27.179Z,14.20
2022-08-08T05:57:57.714Z,10.00
2022-08-08T06:00:35.646Z,13.20
2022-08-08T06:03:34.436Z,11.80
2022-08-08T06:06:32.451Z,13.00
2022-08-08T06:09:58.256Z,12.00
2022-08-08T06:12:50.758Z,12.00
2022-08-08T06:15:50.907Z,13.00
2022-08-08T06:19:16.479Z,12.20
2022-08-08T06:26:36.176Z,12.00
2022-08-08T06:29:26.903Z,12.00
2022-08-08T06:32:28.511Z,12.40
2022-08-08T06:36:06.512Z,12.00
2022-08-08T06:38:44.910Z,8.40
2022-08-08T06:42:02.672Z,12.00
2022-08-08T06:45:11.031Z,10.00
2022-08-08T06:48:11.247Z,12.00
2022-08-08T06:51:11.218Z,11.20
2022-08-08T06:54:09.526Z,12.00
2022-08-08T06:57:07.041Z,12.00
2022-08-08T07:00:12.473Z,11.20
2022-08-08T07:03:51.513Z,10.60
2022-08-08T07:06:33.422Z,13.40
2022-08-08T07:09:45.564Z,12.00
2022-08-08T07:13:01.289Z,12.60
2022-08-08T07:16:28.967Z,12.60
2022-08-08T07:19:41.900Z,11.80
2022-08-08T07:23:02.393Z,11.20
2022-08-08T07:26:03.236Z,7.00
2022-08-08T07:29:05.755Z,10.00
2022-08-08T07:32:06.433Z,10.40
2022-08-08T07:35:06.116Z,10.00
2022-08-08T07:38:20.614Z,8.80
2022-08-08T07:41:58.774Z,7.80
2022-08-08T07:44:49.774Z,6.80
2022-08-08T07:47:51.635Z,8.00
2022-08-08T07:50:50.219Z,7.60
2022-08-08T07:54:01.287Z,7.00
2022-08-08T07:57:01.903Z,7.00
2022-08-08T08:00:13.200Z,6.00
2022-08-08T08:03:43.250Z,5.00
2022-08-08T08:06:43.299Z,5.00
2022-08-08T08:09:42.452Z,4.60
2022-08-08T08:12:43.510Z,6.00
2022-08-08T08:15:44.205Z,6.40
2022-08-08T08:18:55.635Z,4.00
2022-08-08T08:21:58.265Z,5.80
2022-08-08T08:25:07.950Z,5.00
2022-08-08T08:28:09.295Z,4.00
2022-08-08T08:31:08.076Z,6.20
2022-08-08T08:34:08.335Z,6.20
2022-08-08T08:37:08.755Z,5.00
2022-08-08T08:40:10.818Z,6.00
2022-08-08T08:43:15.399Z,5.00
2022-08-08T08:46:19.006Z,4.40
2022-08-08T08:49:17.366Z,4.00
2022-08-08T08:52:17.638Z,4.80
2022-08-08T08:55:20.235Z,5.00
2022-08-08T08:58:39.812Z,5.00
2022-08-08T09:01:43.823Z,4.80
2022-08-08T09:04:56.089Z,3.20
2022-08-08T09:08:12.304Z,5.40
2022-08-08T09:11:11.111Z,4.00
2022-08-08T09:14:08.278Z,5.00
2022-08-08T09:17:12.930Z,4.40
2022-08-08T09:21:56.668Z,5.60
2022-08-08T09:23:33.625Z,5.40
2022-08-08T09:26:47.190Z,4.00
2022-08-08T09:30:02.345Z,4.20
2022-08-08T09:33:55.644Z,3.20
2022-08-08T09:36:22.682Z,4.60
2022-08-08T09:39:22.153Z,5.40
2022-08-08T09:42:23.405Z,4.00
2022-08-08T09:46:00.960Z,6.20
2022-08-08T09:48:52.271Z,5.00
2022-08-08T09:52:06.298Z,6.00
2022-08-08T09:55:05.529Z,6.00
2022-08-08T09:58:07.328Z,5.60
2022-08-08T10:01:14.361Z,6.00
2022-08-08T10:04:15.118Z,5.00
2022-08-08T10:07:36.033Z,5.00
2022-08-08T10:10:50.920Z,6.20
2022-08-08T10:13:57.270Z,6.20
2022-08-08T10:16:55.877Z,7.00
2022-08-08T10:20:00.657Z,5.00
2022-08-08T10:23:01.530Z,6.60
2022-08-08T10:25:59.092Z,6.20
2022-08-08T10:29:06.526Z,5.80
2022-08-08T10:32:21.911Z,5.00
2022-08-08T10:36:08.944Z,6.00
2022-08-08T10:38:41.275Z,5.60
2022-08-08T10:41:59.035Z,7.00
2022-08-08T10:45:02.915Z,6.00
2022-08-08T10:48:10.590Z,6.40
2022-08-08T10:51:14.537Z,7.00
2022-08-08T10:54:20.400Z,4.80
2022-08-08T10:57:17.322Z,5.00
2022-08-08T11:00:48.380Z,5.00
2022-08-08T11:04:00.370Z,5.00
2022-08-08T11:07:00.612Z,5.60
2022-08-08T11:10:19.891Z,5.00
2022-08-08T11:13:29.763Z,5.00
2022-08-08T11:16:32.571Z,3.20
2022-08-08T11:19:30.292Z,5.00
2022-08-08T11:22:32.402Z,4.00
2022-08-08T11:25:52.237Z,5.00
2022-08-08T11:28:50.302Z,5.00
2022-08-08T11:31:50.448Z,3.60
2022-08-08T11:38:36.587Z,5.20
2022-08-08T11:41:21.213Z,4.80
2022-08-08T11:44:28.991Z,3.60
2022-08-08T11:47:39.175Z,6.80
2022-08-08T11:50:36.972Z,4.80
2022-08-08T11:53:42.643Z,3.00
2022-08-08T11:56:56.632Z,4.00
2022-08-08T12:00:02.561Z,4.00
2022-08-08T12:03:36.446Z,4.00
2022-08-08T12:06:33.637Z,4.40
2022-08-08T12:09:59.684Z,5.20
2022-08-08T12:12:52.146Z,5.00
2022-08-08T12:15:53.734Z,5.00
2022-08-08T12:18:53.624Z,5.60
2022-08-08T12:21:59.780Z,4.40
2022-08-08T12:25:05.434Z,6.00
2022-08-08T12:28:22.444Z,5.20
2022-08-08T12:31:30.381Z,5.00
2022-08-08T12:34:39.988Z,5.00
2022-08-08T12:37:39.976Z,4.40
2022-08-08T12:40:56.278Z,3.40
2022-08-08T12:44:00.609Z,5.00
2022-08-08T12:47:00.204Z,5.00
2022-08-08T12:50:00.427Z,2.00
2022-08-08T12:52:57.504Z,2.20
2022-08-08T12:56:17.678Z,5.00
2022-08-08T12:59:18.296Z,4.25
2022-08-08T13:02:31.745Z,4.75
2022-08-08T13:06:04.245Z,4.00
2022-08-08T13:08:53.690Z,4.00
2022-08-08T13:12:27.051Z,3.00
2022-08-08T13:15:12.400Z,3.75
2022-08-08T13:18:13.607Z,4.00
2022-08-08T13:21:14.299Z,4.80
2022-08-08T13:24:19.008Z,3.50
2022-08-08T13:27:35.407Z,4.00
2022-08-08T13:30:33.595Z,4.00
2022-08-08T13:33:41.885Z,6.80
2022-08-08T13:36:40.860Z,7.00
2022-08-08T13:39:41.721Z,5.75
2022-08-08T13:42:39.199Z,5.75
2022-08-08T13:45:37.019Z,4.75
2022-08-08T13:48:34.076Z,4.00
2022-08-08T13:51:37.604Z,4.00
2022-08-08T13:54:40.785Z,4.00
2022-08-08T13:57:46.262Z,4.00
2022-08-08T14:00:59.288Z,3.00
2022-08-08T14:04:00.375Z,3.25
2022-08-08T14:07:02.136Z,4.00
2022-08-08T14:10:11.897Z,3.75
2022-08-08T14:13:30.494Z,3.00
2022-08-08T14:16:30.450Z,3.00
2022-08-08T14:19:55.665Z,3.00
2022-08-08T14:22:56.047Z,3.75
2022-08-08T14:26:00.675Z,2.50
2022-08-08T14:29:27.035Z,3.00
2022-08-08T14:32:30.058Z,1.75
2022-08-08T14:35:35.190Z,3.25
2022-08-08T14:38:52.055Z,3.00
2022-08-08T14:41:54.456Z,2.00
2022-08-08T14:45:00.602Z,1.50
2022-08-08T14:48:02.828Z,4.00
2022-08-08T14:51:07.511Z,3.50
2022-08-08T14:54:04.426Z,3.00
2022-08-08T14:57:03.993Z,2.00
2022-08-08T15:00:02.932Z,3.00
2022-08-08T15:03:14.041Z,2.75
2022-08-08T15:06:12.141Z,3.00
2022-08-08T15:09:13.990Z,2.75
2022-08-08T15:12:11.416Z,3.00
2022-08-08T15:15:09.667Z,3.00
2022-08-08T15:18:08.239Z,1.75
2022-08-08T15:21:08.565Z,3.00
2022-08-08T15:24:06.367Z,2.25
2022-08-08T15:27:57.819Z,3.00
2022-08-08T15:30:26.849Z,3.75
2022-08-08T15:33:35.714Z,3.00
2022-08-08T15:36:42.515Z,2.75
2022-08-08T15:39:40.639Z,3.25
2022-08-08T15:42:37.610Z,3.25
2022-08-08T15:45:36.756Z,4.00
2022-08-08T15:48:36.581Z,3.75
2022-08-08T15:51:34.385Z,2.50
2022-08-08T15:54:39.028Z,3.00
2022-08-08T15:57:39.779Z,3.00
2022-08-08T16:00:37.659Z,3.00
2022-08-08T16:03:46.003Z,2.50
2022-08-08T16:06:50.556Z,3.50
2022-08-08T16:13:09.019Z,3.50
2022-08-08T16:13:35.016Z,0.50
2022-08-08T16:16:22.142Z,3.25
2022-08-08T16:19:19.807Z,2.50
2022-08-08T16:22:38.874Z,2.50
2022-08-08T16:25:46.171Z,1.75
2022-08-08T16:28:51.531Z,3.25
2022-08-08T16:31:50.025Z,3.50
2022-08-08T16:34:47.723Z,3.50
2022-08-08T16:37:47.428Z,3.00
2022-08-08T16:40:44.359Z,2.50
2022-08-08T16:43:49.038Z,3.00
2022-08-08T16:46:48.909Z,2.00
2022-08-08T16:50:01.389Z,2.00
2022-08-08T16:55:04.081Z,2.25
2022-08-08T16:56:18.713Z,3.50
2022-08-08T16:59:21.488Z,1.00
2022-08-08T17:02:37.983Z,3.25
2022-08-08T17:05:45.023Z,3.50
2022-08-08T17:08:42.662Z,4.00
2022-08-08T17:11:48.818Z,2.75
2022-08-08T17:14:48.729Z,2.00
2022-08-08T17:18:02.750Z,2.00
2022-08-08T17:21:01.836Z,3.00
2022-08-08T17:24:02.670Z,2.00
2022-08-08T17:27:01.456Z,2.00
2022-08-08T17:29:58.917Z,3.25
2022-08-08T17:34:36.901Z,3.00
2022-08-08T17:36:22.779Z,2.75
2022-08-08T17:39:45.828Z,2.00
2022-08-08T17:42:47.227Z,3.00
2022-08-08T17:45:47.429Z,0.00
2022-08-08T17:48:47.857Z,3.00
2022-08-08T17:51:51.666Z,1.75
2022-08-08T17:54:55.905Z,3.00
2022-08-08T17:57:53.747Z,2.00
2022-08-08T18:00:56.157Z,2.00
2022-08-08T18:03:54.680Z,2.00
2022-08-08T18:06:57.001Z,3.00
2022-08-08T18:09:54.519Z,3.00
2022-08-08T18:12:51.380Z,3.00
2022-08-08T18:15:48.814Z,3.00
2022-08-08T18:18:58.406Z,1.00
2022-08-08T18:22:02.419Z,2.00
2022-08-08T18:25:03.093Z,2.00
2022-08-08T18:28:00.663Z,2.00
2022-08-08T18:30:58.537Z,2.75
2022-08-08T18:34:25.085Z,3.00
2022-08-08T18:37:33.623Z,2.00
2022-08-08T18:40:35.189Z,2.40
2022-08-08T18:43:42.777Z,2.00
2022-08-08T18:46:55.326Z,2.75
2022-08-08T18:49:58.983Z,2.00
2022-08-08T18:52:57.876Z,1.00
2022-08-08T18:55:54.890Z,2.00
2022-08-08T18:58:53.676Z,3.20
2022-08-08T19:02:28.782Z,2.00
2022-08-08T19:05:08.225Z,2.75
2022-08-08T19:08:10.176Z,3.00
2022-08-08T19:11:22.552Z,2.00
2022-08-08T19:14:20.334Z,2.40
2022-08-08T19:17:28.685Z,2.00
2022-08-08T19:20:26.968Z,2.40
2022-08-08T19:23:23.416Z,2.00
2022-08-08T19:26:30.550Z,2.40
2022-08-08T19:29:28.623Z,2.00
2022-08-08T19:32:25.861Z,3.00
2022-08-08T19:35:45.329Z,2.00
2022-08-08T19:38:43.783Z,2.20
2022-08-08T19:41:40.750Z,2.20
2022-08-08T19:44:45.482Z,2.00
2022-08-08T19:47:49.384Z,2.00
2022-08-08T19:50:47.648Z,2.20
2022-08-08T19:53:50.983Z,2.40
2022-08-08T19:56:50.793Z,2.60
2022-08-08T19:59:47.964Z,3.00
2022-08-08T20:02:50.597Z,2.00
2022-08-08T20:06:15.311Z,3.00
2022-08-08T20:09:09.081Z,3.00
2022-08-08T20:12:09.348Z,2.00
2022-08-08T20:15:10.389Z,3.00
2022-08-08T20:18:15.493Z,2.80
2022-08-08T20:21:14.430Z,1.60
2022-08-08T20:24:12.009Z,2.60
2022-08-08T20:27:10.044Z,2.00
2022-08-08T20:30:52.422Z,4.00
2022-08-08T20:34:28.890Z,2.00
2022-08-08T20:36:52.643Z,2.00
2022-08-08T20:39:51.729Z,2.00
2022-08-08T20:42:54.698Z,2.20
2022-08-08T20:45:57.591Z,2.00
2022-08-08T20:49:00.950Z,2.00
2022-08-08T20:51:59.903Z,2.00
2022-08-08T20:54:58.203Z,2.20
2022-08-08T20:57:57.989Z,1.00
2022-08-08T21:00:54.846Z,2.00
2022-08-08T21:04:00.129Z,3.00
2022-08-08T21:06:59.360Z,2.40
2022-08-08T21:10:07.659Z,1.40
2022-08-08T21:13:10.599Z,2.80
2022-08-08T21:16:18.164Z,2.20
2022-08-08T21:19:24.057Z,0.80
2022-08-08T21:22:31.983Z,3.00
2022-08-08T21:25:29.076Z,4.00
2022-08-08T21:28:35.501Z,2.00
2022-08-08T21:31:53.446Z,3.00
2022-08-08T21:34:50.642Z,3.00
2022-08-08T21:37:54.955Z,2.00
2022-08-08T21:40:55.925Z,1.40
2022-08-08T21:43:53.963Z,4.00
2022-08-08T21:48:07.509Z,3.80
2022-08-08T21:50:11.785Z,3.20
2022-08-08T21:54:35.308Z,3.60
2022-08-08T21:56:31.359Z,3.80
2022-08-08T22:00:01.880Z,4.00
2022-08-08T22:02:53.888Z,3.20
2022-08-08T22:05:51.918Z,3.60
2022-08-08T22:08:59.158Z,4.00
2022-08-08T22:12:08.846Z,3.00
2022-08-08T22:15:07.687Z,4.00
2022-08-08T22:18:05.008Z,4.60
2022-08-08T22:21:15.773Z,3.60
2022-08-08T22:24:13.677Z,2.60
2022-08-08T22:27:11.168Z,4.00
2022-08-08T22:30:13.839Z,1.40
2022-08-08T22:34:11.240Z,3.60
2022-08-08T22:36:34.377Z,5.00
2022-08-08T22:39:45.861Z,4.20
2022-08-08T22:42:49.898Z,5.00
2022-08-08T22:45:52.904Z,5.00
2022-08-08T22:48:54.566Z,2.00
2022-08-08T22:51:52.132Z,5.00
2022-08-08T22:55:04.429Z,3.80
2022-08-08T22:58:03.520Z,3.00
2022-08-08T23:01:02.262Z,5.20
2022-08-08T23:04:32.517Z,4.80
2022-08-08T23:07:49.303Z,4.00
2022-08-08T23:10:52.736Z,5.00
2022-08-08T23:13:53.565Z,4.00
2022-08-08T23:16:59.538Z,4.00
2022-08-08T23:19:56.868Z,5.00
2022-08-08T23:22:55.044Z,2.40
2022-08-08T23:25:52.076Z,4.00
2022-08-08T23:28:48.896Z,5.00
2022-08-08T23:31:45.841Z,5.00
2022-08-08T23:36:06.978Z,6.00
2022-08-08T23:39:07.340Z,5.00
2022-08-08T23:42:06.703Z,4.80
2022-08-08T23:45:06.408Z,4.00
2022-08-08T23:49:06.560Z,4.20
2022-08-08T23:51:42.110Z,3.00
2022-08-08T23:55:00.296Z,4.00
2022-08-08T23:58:01.854Z,5.00
